Time;durP1;ratioP1;P1;durP2;ratioP2;P2;SDS_P1;SDS_P2;PMS_P1;PMS_P2;Temp;Humidity;BMP_temperature;BMP_pressure;BME280_temperature;BME280_humidity;BME280_pressure;Samples;Min_cycle;Max_cycle;Signal;HPM_P1;HPM_P2
2023/12/29 00:02:32;;;;;;;31.70;13.87;;;;;;;;;;6268975;28;20448;-68
2023/12/29 00:05:33;;;;;;;27.70;13.20;;;;;;;;;;6269037;28;20348;-67
2023/12/29 00:08:33;;;;;;;27.17;13.15;;;;;;;;;;6267817;28;21493;-68
2023/12/29 00:11:34;;;;;;;30.55;12.95;;;;;;;;;;6268452;28;20553;-68
2023/12/29 00:14:39;;;;;;;30.98;12.88;;;;;;;;;;6272126;28;20495;-68
2023/12/29 00:17:40;;;;;;;30.88;13.10;;;;;;;;;;6264766;28;20041;-68
2023/12/29 00:20:41;;;;;;;28.10;13.32;;;;;;;;;;6266741;28;20063;-68
2023/12/29 00:23:42;;;;;;;27.58;11.75;;;;;;;;;;6268388;28;20080;-68
2023/12/29 00:26:43;;;;;;;26.52;12.40;;;;;;;;;;6272708;28;20480;-67
2023/12/29 00:29:44;;;;;;;;;;;;;;;;;;6266329;28;20059;-67
2023/12/29 00:32:45;;;;;;;28.60;12.35;;;;;;;;;;6272588;28;19925;-67
2023/12/29 00:35:46;;;;;;;27.02;12.30;;;;;;;;;;6264768;28;20985;-68
2023/12/29 00:38:46;;;;;;;27.52;12.00;;;;;;;;;;6256468;28;20048;-68
2023/12/29 00:41:47;;;;;;;24.88;12.38;;;;;;;;;;6263890;28;20136;-68
2023/12/29 00:44:48;;;;;;;24.92;12.57;;;;;;;;;;6267248;28;20062;-68
2023/12/29 00:47:50;;;;;;;27.00;13.10;;;;;;;;;;6267805;28;20048;-68
2023/12/29 00:50:51;;;;;;;28.38;12.90;;;;;;;;;;6263712;28;20048;-68
2023/12/29 00:53:52;;;;;;;28.05;11.80;;;;;;;;;;6265787;28;20167;-68
2023/12/29 00:56:52;;;;;;;28.13;11.95;;;;;;;;;;6265588;28;20052;-68
2023/12/29 00:59:53;;;;;;;25.15;11.55;;;;;;;;;;6261674;28;20053;-68
2023/12/29 01:02:53;;;;;;;25.33;11.50;;;;;;;;;;6267031;28;20045;-68
2023/12/29 01:05:54;;;;;;;27.00;11.75;;;;;;;;;;6267252;28;20057;-68
2023/12/29 01:08:55;;;;;;;23.45;11.05;;;;;;;;;;6266261;28;20493;-68
2023/12/29 01:11:56;;;;;;;25.52;11.00;;;;;;;;;;6256021;28;20046;-67
2023/12/29 01:14:56;;;;;;;26.00;11.10;;;;;;;;;;6268134;28;20452;-68
2023/12/29 01:17:57;;;;;;;22.33;10.77;;;;;;;;;;6270529;28;20131;-68
2023/12/29 01:20:58;;;;;;;22.20;10.55;;;;;;;;;;6261314;28;20053;-68
2023/12/29 01:24:04;;;;;;;26.70;11.07;;;;;;;;;;6265185;28;20971;-68
2023/12/29 01:27:05;;;;;;;26.55;11.00;;;;;;;;;;6265201;28;20162;-68
2023/12/29 01:30:06;;;;;;;26.48;11.23;;;;;;;;;;6266137;28;20048;-68
2023/12/29 01:33:07;;;;;;;21.73;9.77;;;;;;;;;;6265826;28;20052;-68
2023/12/29 01:36:08;;;;;;;21.58;10.23;;;;;;;;;;6265564;28;20060;-69
2023/12/29 01:39:09;;;;;;;19.88;10.30;;;;;;;;;;6268972;28;20087;-68
2023/12/29 01:42:11;;;;;;;22.80;10.02;;;;;;;;;;6263072;28;20662;-68
2023/12/29 01:45:23;;;;;;;22.95;9.90;;;;;;;;;;6266850;28;20106;-67
2023/12/29 01:48:24;;;;;;;27.55;10.93;;;;;;;;;;6267998;28;20049;-68
2023/12/29 01:51:26;;;;;;;22.25;9.57;;;;;;;;;;6260129;28;20130;-68
2023/12/29 01:54:35;;;;;;;19.00;9.77;;;;;;;;;;6268394;28;20057;-68
2023/12/29 01:57:36;;;;;;;22.92;10.23;;;;;;;;;;6267001;28;20045;-68
2023/12/29 02:00:38;;;;;;;20.10;9.35;;;;;;;;;;6261924;28;20049;-68
2023/12/29 02:03:38;;;;;;;19.90;10.02;;;;;;;;;;6271344;28;20075;-68
2023/12/29 02:06:40;;;;;;;18.90;9.05;;;;;;;;;;6264192;28;20061;-68
2023/12/29 02:09:41;;;;;;;19.58;9.27;;;;;;;;;;6267303;28;20498;-67
2023/12/29 02:12:41;;;;;;;19.70;8.70;;;;;;;;;;6263210;28;20051;-68
2023/12/29 02:15:44;;;;;;;17.35;8.50;;;;;;;;;;6263837;28;20416;-67
2023/12/29 02:18:47;;;;;;;17.50;8.00;;;;;;;;;;6264020;28;20047;-68
2023/12/29 02:21:47;;;;;;;;;;;;;;;;;;6267986;28;20060;-68
2023/12/29 02:24:51;;;;;;;19.13;8.07;;;;;;;;;;6269269;28;20020;-68
2023/12/29 02:27:54;;;;;;;15.90;7.82;;;;;;;;;;6271949;28;20084;-68
2023/12/29 02:31:09;;;;;;;17.35;8.02;;;;;;;;;;6266606;28;20052;-68
2023/12/29 02:34:12;;;;;;;15.32;7.70;;;;;;;;;;6271021;28;20493;-67
2023/12/29 02:37:14;;;;;;;20.33;8.68;;;;;;;;;;6267645;28;20136;-68
2023/12/29 02:40:16;;;;;;;17.13;7.63;;;;;;;;;;6266773;28;20138;-68
2023/12/29 02:43:16;;;;;;;17.10;7.45;;;;;;;;;;6270897;28;20049;-68
2023/12/29 02:46:17;;;;;;;19.52;7.47;;;;;;;;;;6270661;28;20606;-68
2023/12/29 02:49:18;;;;;;;17.25;7.93;;;;;;;;;;6269769;28;20101;-67
2023/12/29 02:52:19;;;;;;;17.05;7.63;;;;;;;;;;6268078;28;20103;-68
2023/12/29 02:55:19;;;;;;;17.08;8.50;;;;;;;;;;6278643;28;20072;-68
2023/12/29 02:58:20;;;;;;;19.48;7.78;;;;;;;;;;6304312;28;20617;-68
2023/12/29 03:01:21;;;;;;;19.30;7.75;;;;;;;;;;6309531;28;20100;-68
2023/12/29 03:04:22;;;;;;;17.98;7.70;;;;;;;;;;6307741;28;20604;-68
2023/12/29 03:07:23;;;;;;;17.23;6.93;;;;;;;;;;6293663;28;20052;-68
2023/12/29 03:10:23;;;;;;;18.60;8.35;;;;;;;;;;6311860;28;20052;-67
2023/12/29 03:13:24;;;;;;;19.90;7.68;;;;;;;;;;6311088;28;20052;-68
2023/12/29 03:16:25;;;;;;;15.68;7.93;;;;;;;;;;6312496;28;20048;-67
2023/12/29 03:19:26;;;;;;;16.67;8.00;;;;;;;;;;6310526;28;20098;-68
2023/12/29 03:22:26;;;;;;;18.85;8.43;;;;;;;;;;6311422;28;20138;-68
2023/12/29 03:25:27;;;;;;;17.83;8.43;;;;;;;;;;6309000;28;20521;-68
2023/12/29 03:28:28;;;;;;;19.65;7.95;;;;;;;;;;6311683;28;20407;-68
2023/12/29 03:31:28;;;;;;;17.58;8.30;;;;;;;;;;6310621;28;20127;-68
2023/12/29 03:34:29;;;;;;;18.17;8.20;;;;;;;;;;6311836;28;20048;-67
2023/12/29 03:37:30;;;;;;;19.65;8.70;;;;;;;;;;6312613;28;20499;-68
2023/12/29 03:40:30;;;;;;;17.40;8.35;;;;;;;;;;6313366;28;20051;-68
2023/12/29 03:43:31;;;;;;;18.55;8.43;;;;;;;;;;6309187;28;20071;-67
2023/12/29 03:46:32;;;;;;;15.80;7.28;;;;;;;;;;6310094;28;20059;-67
2023/12/29 03:49:34;;;;;;;17.23;7.63;;;;;;;;;;6311416;28;20040;-68
2023/12/29 03:52:34;;;;;;;19.33;8.20;;;;;;;;;;6308172;28;20048;-68
2023/12/29 03:55:35;;;;;;;20.65;8.13;;;;;;;;;;6301982;28;20048;-67
2023/12/29 03:58:36;;;;;;;18.13;8.60;;;;;;;;;;6312278;28;20088;-68
2023/12/29 04:01:36;;;;;;;18.63;8.30;;;;;;;;;;6310866;28;20075;-67
2023/12/29 04:04:38;;;;;;;19.15;8.13;;;;;;;;;;6311992;28;20043;-68
2023/12/29 04:07:40;;;;;;;16.88;7.82;;;;;;;;;;6311592;28;20059;-68
2023/12/29 04:10:59;;;;;;;17.20;7.82;;;;;;;;;;6312421;28;20056;-67
2023/12/29 04:14:00;;;;;;;17.67;8.10;;;;;;;;;;6310522;28;20201;-68
2023/12/29 04:17:03;;;;;;;16.25;8.32;;;;;;;;;;6310594;28;20112;-68
2023/12/29 04:20:09;;;;;;;16.15;7.90;;;;;;;;;;6309047;28;20132;-67
2023/12/29 04:23:11;;;;;;;19.08;8.00;;;;;;;;;;6309204;28;20075;-68
2023/12/29 04:26:12;;;;;;;;;;;;;;;;;;6311021;28;20121;-67
2023/12/29 04:29:13;;;;;;;17.60;7.70;;;;;;;;;;6312221;28;20366;-68
2023/12/29 04:32:14;;;;;;;14.70;8.02;;;;;;;;;;6311745;28;20070;-67
2023/12/29 04:35:14;;;;;;;21.75;8.10;;;;;;;;;;6302574;28;20049;-67
2023/12/29 04:38:18;;;;;;;16.77;7.45;;;;;;;;;;6310200;28;20055;-67
2023/12/29 04:41:18;;;;;;;17.77;7.63;;;;;;;;;;6309322;28;20052;-67
2023/12/29 04:44:20;;;;;;;20.30;9.18;;;;;;;;;;6309000;28;20062;-67
2023/12/29 04:47:20;;;;;;;18.77;7.53;;;;;;;;;;6308720;28;20044;-68
2023/12/29 04:50:21;;;;;;;18.92;8.18;;;;;;;;;;6312404;28;20453;-67
2023/12/29 04:53:22;;;;;;;20.58;9.43;;;;;;;;;;6312123;28;20052;-67
2023/12/29 04:56:23;;;;;;;21.75;9.60;;;;;;;;;;6310558;28;20445;-68
2023/12/29 04:59:24;;;;;;;16.42;7.50;;;;;;;;;;6310233;28;20056;-67
2023/12/29 05:02:25;;;;;;;17.23;7.90;;;;;;;;;;6312650;28;20056;-67
2023/12/29 05:05:26;;;;;;;17.95;8.70;;;;;;;;;;6305874;28;20051;-68
2023/12/29 05:08:27;;;;;;;18.20;8.20;;;;;;;;;;6311022;28;20040;-68
2023/12/29 05:11:28;;;;;;;13.43;6.90;;;;;;;;;;6311906;28;20093;-67
2023/12/29 05:14:29;;;;;;;16.70;7.82;;;;;;;;;;6310404;28;20048;-68
2023/12/29 05:17:30;;;;;;;16.13;7.28;;;;;;;;;;6311200;28;20059;-68
2023/12/29 05:20:31;;;;;;;17.08;7.90;;;;;;;;;;6308543;28;20048;-68
2023/12/29 05:23:32;;;;;;;18.38;7.88;;;;;;;;;;6310362;28;20051;-68
2023/12/29 05:26:33;;;;;;;16.60;7.22;;;;;;;;;;6307988;28;20716;-68
2023/12/29 05:29:34;;;;;;;14.27;6.63;;;;;;;;;;6308193;28;20044;-67
2023/12/29 05:32:37;;;;;;;16.08;6.82;;;;;;;;;;6311196;28;20044;-67
2023/12/29 05:35:37;;;;;;;20.00;8.10;;;;;;;;;;6307717;28;20490;-68
2023/12/29 05:38:41;;;;;;;15.10;6.20;;;;;;;;;;6292365;28;20221;-68
2023/12/29 05:41:41;;;;;;;15.07;6.35;;;;;;;;;;6310049;28;20468;-68
2023/12/29 05:44:42;;;;;;;11.68;5.80;;;;;;;;;;6309676;28;20048;-68
2023/12/29 05:47:43;;;;;;;14.30;5.93;;;;;;;;;;6291530;28;20055;-67
2023/12/29 05:50:44;;;;;;;13.75;6.30;;;;;;;;;;6311683;28;20044;-67
2023/12/29 05:53:44;;;;;;;14.95;5.95;;;;;;;;;;6307628;28;20044;-68
2023/12/29 05:56:45;;;;;;;12.82;5.75;;;;;;;;;;6315472;28;20475;-67
2023/12/29 05:59:45;;;;;;;11.10;5.38;;;;;;;;;;6315257;28;20047;-68
2023/12/29 06:02:47;;;;;;;13.70;6.10;;;;;;;;;;6314529;28;20051;-67
2023/12/29 06:05:48;;;;;;;11.05;4.95;;;;;;;;;;6314198;28;20090;-67
2023/12/29 06:08:50;;;;;;;13.68;5.78;;;;;;;;;;6314762;28;20051;-67
2023/12/29 06:11:50;;;;;;;12.68;5.95;;;;;;;;;;6313202;28;20067;-67
2023/12/29 06:14:51;;;;;;;12.88;5.78;;;;;;;;;;6314789;28;20501;-67
2023/12/29 06:17:52;;;;;;;12.98;5.85;;;;;;;;;;6315336;28;20117;-68
2023/12/29 06:20:53;;;;;;;14.15;7.00;;;;;;;;;;6314648;28;20048;-68
2023/12/29 06:23:53;;;;;;;15.35;6.38;;;;;;;;;;6309739;28;20052;-67
2023/12/29 06:26:54;;;;;;;12.90;5.85;;;;;;;;;;6315203;28;20048;-68
2023/12/29 06:29:55;;;;;;;18.83;6.90;;;;;;;;;;6314646;28;20052;-68
2023/12/29 06:32:55;;;;;;;14.27;6.47;;;;;;;;;;6311886;28;20414;-67
2023/12/29 06:35:56;;;;;;;16.90;6.10;;;;;;;;;;6312706;28;20066;-67
2023/12/29 06:38:57;;;;;;;16.25;7.25;;;;;;;;;;6314814;28;20111;-68
2023/12/29 06:41:57;;;;;;;13.75;7.10;;;;;;;;;;6313911;28;20044;-67
2023/12/29 06:44:58;;;;;;;15.05;6.85;;;;;;;;;;6314052;28;20047;-68
2023/12/29 06:47:59;;;;;;;14.50;6.72;;;;;;;;;;6314602;28;20494;-67
2023/12/29 06:50:59;;;;;;;16.27;6.63;;;;;;;;;;6313732;28;20560;-67
2023/12/29 06:54:00;;;;;;;17.00;7.50;;;;;;;;;;6309560;28;20700;-68
2023/12/29 06:57:01;;;;;;;15.50;7.07;;;;;;;;;;6313223;28;20521;-68
2023/12/29 07:00:02;;;;;;;15.13;7.22;;;;;;;;;;6313487;28;20051;-68
2023/12/29 07:03:03;;;;;;;18.58;8.02;;;;;;;;;;6313648;28;20525;-67
2023/12/29 07:06:16;;;;;;;17.00;7.75;;;;;;;;;;6307619;28;20052;-67
2023/12/29 07:09:17;;;;;;;19.88;7.80;;;;;;;;;;6313423;28;20390;-67
2023/12/29 07:12:18;;;;;;;17.42;8.18;;;;;;;;;;6312937;28;20052;-67
2023/12/29 07:15:18;;;;;;;17.13;7.50;;;;;;;;;;6308852;28;20059;-67
2023/12/29 07:18:19;;;;;;;20.02;7.95;;;;;;;;;;6309504;28;20040;-67
2023/12/29 07:21:20;;;;;;;17.33;7.65;;;;;;;;;;6312028;28;20131;-68
2023/12/29 07:24:20;;;;;;;18.20;8.07;;;;;;;;;;6313627;28;20044;-67
2023/12/29 07:27:22;;;;;;;19.33;8.68;;;;;;;;;;6311770;28;20087;-67
2023/12/29 07:30:22;;;;;;;18.88;7.80;;;;;;;;;;6314222;28;20546;-67
2023/12/29 07:33:23;;;;;;;17.38;7.97;;;;;;;;;;6311662;28;20051;-67
2023/12/29 07:36:25;;;;;;;19.30;8.93;;;;;;;;;;6311587;28;20051;-67
2023/12/29 07:39:25;;;;;;;17.92;7.75;;;;;;;;;;6314040;28;20127;-68
2023/12/29 07:42:26;;;;;;;23.73;8.57;;;;;;;;;;6313139;28;20051;-66
2023/12/29 07:45:27;;;;;;;14.75;7.22;;;;;;;;;;6311901;28;20109;-66
2023/12/29 07:48:28;;;;;;;16.67;7.28;;;;;;;;;;6294759;28;20080;-67
2023/12/29 07:51:29;;;;;;;15.55;6.85;;;;;;;;;;6304468;28;20040;-67
2023/12/29 07:54:30;;;;;;;14.73;7.28;;;;;;;;;;6311660;28;20048;-63
2023/12/29 07:57:30;;;;;;;17.38;7.18;;;;;;;;;;6311798;28;20125;-69
2023/12/29 08:00:31;;;;;;;18.67;7.70;;;;;;;;;;6310333;28;20044;-63
2023/12/29 08:03:32;;;;;;;17.85;8.13;;;;;;;;;;6291264;28;20131;-69
2023/12/29 08:06:32;;;;;;;21.85;8.70;;;;;;;;;;6289772;28;20060;-63
2023/12/29 08:09:33;;;;;;;19.42;6.88;;;;;;;;;;6291863;28;20846;-61
2023/12/29 08:12:35;;;;;;;17.27;7.05;;;;;;;;;;6289826;28;20057;-59
2023/12/29 08:15:37;;;;;;;19.10;6.97;;;;;;;;;;6290176;28;20060;-61
2023/12/29 08:18:38;;;;;;;17.13;7.25;;;;;;;;;;6290360;28;20061;-65
2023/12/29 08:21:39;;;;;;;24.48;8.73;;;;;;;;;;6291133;28;20048;-72
2023/12/29 08:24:43;;;;;;;15.65;6.57;;;;;;;;;;6291096;28;20075;-66
2023/12/29 08:27:44;;;;;;;18.88;7.18;;;;;;;;;;6289540;28;20062;-64
2023/12/29 08:30:45;;;;;;;16.33;6.53;;;;;;;;;;6289925;28;20140;-66
2023/12/29 08:33:46;;;;;;;14.13;5.97;;;;;;;;;;6289335;28;20127;-64
2023/12/29 08:36:47;;;;;;;14.43;6.50;;;;;;;;;;6288345;28;20434;-61
2023/12/29 08:39:48;;;;;;;16.58;7.20;;;;;;;;;;6291354;28;20052;-71
2023/12/29 08:42:50;;;;;;;17.73;6.78;;;;;;;;;;6290588;28;20056;-64
2023/12/29 08:45:51;;;;;;;17.00;6.60;;;;;;;;;;6289446;28;20058;-64
2023/12/29 08:48:51;;;;;;;15.13;6.45;;;;;;;;;;6290629;28;20052;-66
2023/12/29 08:51:52;;;;;;;13.98;6.13;;;;;;;;;;6289213;28;20070;-64
2023/12/29 08:54:53;;;;;;;14.30;5.47;;;;;;;;;;6290299;28;20037;-65
2023/12/29 08:57:54;;;;;;;15.27;6.25;;;;;;;;;;6289328;28;20048;-65
2023/12/29 09:00:55;;;;;;;12.10;4.95;;;;;;;;;;6290237;28;20071;-67
2023/12/29 09:03:56;;;;;;;13.43;5.80;;;;;;;;;;6290058;28;20047;-64
2023/12/29 09:06:56;;;;;;;13.15;5.78;;;;;;;;;;6288119;28;20048;-65
2023/12/29 09:09:57;;;;;;;13.00;5.38;;;;;;;;;;6290429;28;20080;-67
2023/12/29 09:12:58;;;;;;;11.77;4.93;;;;;;;;;;6290106;28;20045;-66
2023/12/29 09:15:59;;;;;;;14.00;5.13;;;;;;;;;;6281263;28;20503;-66
2023/12/29 09:18:59;;;;;;;11.32;4.70;;;;;;;;;;6290588;28;20067;-66
2023/12/29 09:22:01;;;;;;;10.48;5.03;;;;;;;;;;6287820;28;20095;-67
2023/12/29 09:25:01;;;;;;;12.98;5.38;;;;;;;;;;6289865;28;20044;-67
2023/12/29 09:28:02;;;;;;;12.70;5.38;;;;;;;;;;6289332;28;20555;-67
2023/12/29 09:31:03;;;;;;;12.40;4.80;;;;;;;;;;6294486;28;20040;-66
2023/12/29 09:34:04;;;;;;;13.00;5.75;;;;;;;;;;6294996;28;20086;-68
2023/12/29 09:37:05;;;;;;;10.35;4.35;;;;;;;;;;6293763;28;20040;-66
2023/12/29 09:40:06;;;;;;;10.57;4.70;;;;;;;;;;6293562;28;20057;-62
2023/12/29 09:43:09;;;;;;;10.80;5.20;;;;;;;;;;6280346;28;20053;-65
2023/12/29 09:46:12;;;;;;;9.70;5.00;;;;;;;;;;6293100;28;20044;-65
2023/12/29 09:49:14;;;;;;;11.63;4.32;;;;;;;;;;6293122;28;20102;-65
2023/12/29 09:52:16;;;;;;;11.43;5.13;;;;;;;;;;6292686;28;20044;-65
2023/12/29 09:55:20;;;;;;;11.70;4.75;;;;;;;;;;6302916;28;20044;-65
2023/12/29 09:58:22;;;;;;;8.80;4.20;;;;;;;;;;6310042;28;20051;-66
2023/12/29 10:01:24;;;;;;;13.77;5.35;;;;;;;;;;6313222;28;20086;-66
2023/12/29 10:04:24;;;;;;;10.18;4.60;;;;;;;;;;6313298;28;20117;-65
2023/12/29 10:07:26;;;;;;;12.23;5.50;;;;;;;;;;6311651;28;20052;-66
2023/12/29 10:10:28;;;;;;;10.32;4.80;;;;;;;;;;6313614;28;20130;-66
2023/12/29 10:13:31;;;;;;;10.43;5.33;;;;;;;;;;6314569;28;20558;-65
2023/12/29 10:16:38;;;;;;;10.85;4.82;;;;;;;;;;6314417;28;20050;-66
2023/12/29 10:19:50;;;;;;;9.45;4.68;;;;;;;;;;6315343;28;20086;-67
2023/12/29 10:22:59;;;;;;;9.50;4.45;;;;;;;;;;6315191;28;20062;-66
2023/12/29 10:26:01;;;;;;;13.13;5.60;;;;;;;;;;6282895;28;20491;-66
2023/12/29 10:29:02;;;;;;;11.50;4.88;;;;;;;;;;6271549;28;20099;-66
2023/12/29 10:32:03;;;;;;;11.02;4.70;;;;;;;;;;6314605;28;20089;-65
2023/12/29 10:35:11;;;;;;;10.50;5.13;;;;;;;;;;6315455;28;20040;-66
2023/12/29 10:38:13;;;;;;;10.43;4.80;;;;;;;;;;6315543;28;20124;-66
2023/12/29 10:41:16;;;;;;;10.60;4.50;;;;;;;;;;6313316;28;20044;-66
2023/12/29 10:44:17;;;;;;;11.27;4.63;;;;;;;;;;6314791;28;20052;-66
2023/12/29 10:47:18;;;;;;;10.30;4.85;;;;;;;;;;6317251;28;20058;-66
2023/12/29 10:50:19;;;;;;;13.45;5.00;;;;;;;;;;6313452;28;20044;-66
2023/12/29 10:53:20;;;;;;;11.93;4.93;;;;;;;;;;6314583;28;20492;-66
2023/12/29 10:56:21;;;;;;;13.38;5.28;;;;;;;;;;6312965;28;20048;-65
2023/12/29 10:59:22;;;;;;;13.73;5.38;;;;;;;;;;6311673;28;20044;-66
2023/12/29 11:02:23;;;;;;;13.00;5.75;;;;;;;;;;6314794;28;20544;-67
2023/12/29 11:05:28;;;;;;;11.63;5.20;;;;;;;;;;6312481;28;20142;-66
2023/12/29 11:08:28;;;;;;;12.70;4.95;;;;;;;;;;6311061;28;20109;-65
2023/12/29 11:11:29;;;;;;;11.77;5.00;;;;;;;;;;6312076;28;20068;-66
2023/12/29 11:14:31;;;;;;;13.75;5.15;;;;;;;;;;6316003;28;20498;-67
2023/12/29 11:17:34;;;;;;;15.00;5.20;;;;;;;;;;6313163;28;20135;-66
2023/12/29 11:20:36;;;;;;;12.02;5.07;;;;;;;;;;6313103;28;20043;-66
2023/12/29 11:23:36;;;;;;;12.13;5.23;;;;;;;;;;6316860;28;20105;-65
2023/12/29 11:26:38;;;;;;;12.45;5.20;;;;;;;;;;6312570;28;20052;-65
2023/12/29 11:29:41;;;;;;;12.60;5.00;;;;;;;;;;6308471;28;20249;-66
2023/12/29 11:32:48;;;;;;;13.38;5.35;;;;;;;;;;6315683;28;20128;-65
2023/12/29 11:35:56;;;;;;;11.60;5.00;;;;;;;;;;6312073;28;20750;-66
2023/12/29 11:39:08;;;;;;;10.18;4.72;;;;;;;;;;6312386;28;20048;-66
2023/12/29 11:42:19;;;;;;;10.32;4.80;;;;;;;;;;6314054;28;20044;-66
2023/12/29 11:45:31;;;;;;;11.93;5.63;;;;;;;;;;6310134;28;20131;-66
2023/12/29 11:48:58;;;;;;;11.52;5.10;;;;;;;;;;6313051;28;20495;-66
2023/12/29 11:51:58;;;;;;;11.60;5.30;;;;;;;;;;6305867;28;20388;-66
2023/12/29 11:55:14;;;;;;;12.18;4.88;;;;;;;;;;6311410;28;20048;-66
2023/12/29 11:58:28;;;;;;;11.85;5.53;;;;;;;;;;6313350;28;20105;-66
2023/12/29 12:01:35;;;;;;;11.15;5.03;;;;;;;;;;6312274;28;20070;-66
2023/12/29 12:04:37;;;;;;;10.77;5.10;;;;;;;;;;6309720;28;20530;-65
2023/12/29 12:07:44;;;;;;;11.60;5.28;;;;;;;;;;6310578;28;20139;-65
2023/12/29 12:10:45;;;;;;;12.20;5.40;;;;;;;;;;6308656;28;20044;-65
2023/12/29 12:13:46;;;;;;;13.30;5.43;;;;;;;;;;6302833;28;20064;-65
2023/12/29 12:16:51;;;;;;;11.50;5.35;;;;;;;;;;6306018;28;20071;-65
2023/12/29 12:19:57;;;;;;;13.27;5.47;;;;;;;;;;6313375;28;20160;-65
2023/12/29 12:23:06;;;;;;;12.25;5.72;;;;;;;;;;6311337;28;20052;-65
2023/12/29 12:26:07;;;;;;;10.18;5.05;;;;;;;;;;6303466;28;20422;-65
2023/12/29 12:29:08;;;;;;;11.70;5.30;;;;;;;;;;6310547;28;20097;-65
2023/12/29 12:32:09;;;;;;;13.07;6.43;;;;;;;;;;6312951;28;20054;-66
2023/12/29 12:35:19;;;;;;;11.15;5.80;;;;;;;;;;6308487;28;20055;-65
2023/12/29 12:38:24;;;;;;;13.50;5.57;;;;;;;;;;6309355;28;20058;-66
2023/12/29 12:41:26;;;;;;;12.57;5.60;;;;;;;;;;6310359;28;20056;-66
2023/12/29 12:44:29;;;;;;;11.30;5.53;;;;;;;;;;6310253;28;20048;-66
2023/12/29 12:47:42;;;;;;;13.60;6.32;;;;;;;;;;6292569;28;20048;-64
2023/12/29 12:50:45;;;;;;;12.50;5.40;;;;;;;;;;6304616;28;20055;-65
2023/12/29 12:53:47;;;;;;;14.95;5.35;;;;;;;;;;6271864;28;20045;-66
2023/12/29 12:56:48;;;;;;;11.85;5.57;;;;;;;;;;6272932;28;20045;-66
2023/12/29 12:59:50;;;;;;;12.57;5.80;;;;;;;;;;6265591;28;20037;-66
2023/12/29 13:02:51;;;;;;;13.82;5.65;;;;;;;;;;6269859;28;20294;-65
2023/12/29 13:05:53;;;;;;;13.70;5.30;;;;;;;;;;6267491;28;20068;-63
2023/12/29 13:08:54;;;;;;;13.30;6.30;;;;;;;;;;6262704;28;20055;-65
2023/12/29 13:12:27;;;;;;;10.77;5.47;;;;;;;;;;6267652;28;20049;-63
2023/12/29 13:15:29;;;;;;;9.85;5.00;;;;;;;;;;6272036;28;20140;-64
2023/12/29 13:18:33;;;;;;;12.50;5.90;;;;;;;;;;6278226;28;20059;-70
2023/12/29 13:21:34;;;;;;;11.75;5.50;;;;;;;;;;6263491;28;20063;-76
2023/12/29 13:24:36;;;;;;;12.07;6.15;;;;;;;;;;6272668;28;20045;-66
2023/12/29 13:27:39;;;;;;;10.65;5.30;;;;;;;;;;6267151;28;20041;-67
2023/12/29 13:30:41;;;;;;;11.35;5.28;;;;;;;;;;6273041;28;20052;-65
2023/12/29 13:34:04;;;;;;;11.25;5.03;;;;;;;;;;6263667;28;20079;-68
2023/12/29 13:37:23;;;;;;;10.80;5.47;;;;;;;;;;6267361;28;20457;-66
2023/12/29 13:40:28;;;;;;;11.30;5.30;;;;;;;;;;6287851;28;20060;-65
2023/12/29 13:43:32;;;;;;;12.57;5.65;;;;;;;;;;6263130;28;20056;-65
2023/12/29 13:46:34;;;;;;;13.10;5.63;;;;;;;;;;6268241;28;20396;-64
2023/12/29 13:49:36;;;;;;;11.37;5.47;;;;;;;;;;6266557;28;20052;-65
2023/12/29 13:52:37;;;;;;;15.02;6.53;;;;;;;;;;6260441;28;20281;-64
2023/12/29 13:55:39;;;;;;;13.05;5.97;;;;;;;;;;6265468;28;20045;-67
2023/12/29 13:58:40;;;;;;;15.15;7.07;;;;;;;;;;6266468;28;20057;-64
2023/12/29 14:01:41;;;;;;;15.98;6.22;;;;;;;;;;6272564;28;20061;-68
2023/12/29 14:04:42;;;;;;;15.55;6.35;;;;;;;;;;6265260;28;20583;-64
2023/12/29 14:07:47;;;;;;;12.55;5.68;;;;;;;;;;6268048;28;20048;-63
2023/12/29 14:10:48;;;;;;;14.65;6.70;;;;;;;;;;6270766;28;20041;-65
2023/12/29 14:13:48;;;;;;;14.18;6.18;;;;;;;;;;6273739;28;20121;-65
2023/12/29 14:16:50;;;;;;;12.30;5.50;;;;;;;;;;6267221;28;20439;-64
2023/12/29 14:19:50;;;;;;;14.55;5.40;;;;;;;;;;6267365;28;20124;-64
2023/12/29 14:23:00;;;;;;;11.90;5.30;;;;;;;;;;6272444;28;20135;-66
2023/12/29 14:26:04;;;;;;;11.45;5.28;;;;;;;;;;6273066;28;20541;-64
2023/12/29 14:29:06;;;;;;;12.02;5.55;;;;;;;;;;6268584;28;20051;-65
2023/12/29 14:32:07;;;;;;;;;;;;;;;;;;6268662;28;20064;-65
2023/12/29 14:35:10;;;;;;;12.43;4.97;;;;;;;;;;6266651;28;19928;-66
2023/12/29 14:38:16;;;;;;;11.02;5.55;;;;;;;;;;6267659;28;20405;-65
2023/12/29 14:41:17;;;;;;;11.68;4.90;;;;;;;;;;6270966;28;20045;-63
2023/12/29 14:44:18;;;;;;;10.90;5.32;;;;;;;;;;6270958;28;20510;-67
2023/12/29 14:47:22;;;;;;;10.43;5.03;;;;;;;;;;6273844;28;20070;-70
2023/12/29 14:50:23;;;;;;;10.90;5.28;;;;;;;;;;6269065;28;20056;-63
2023/12/29 14:53:25;;;;;;;10.43;5.10;;;;;;;;;;6266046;28;20052;-64
2023/12/29 14:56:25;;;;;;;11.43;5.15;;;;;;;;;;6269990;28;20503;-65
2023/12/29 14:59:26;;;;;;;13.30;5.38;;;;;;;;;;6272144;28;20044;-64
2023/12/29 15:02:27;;;;;;;10.73;5.07;;;;;;;;;;6270141;28;20045;-65
2023/12/29 15:05:28;;;;;;;21.65;7.97;;;;;;;;;;6268110;28;20484;-65
2023/12/29 15:08:34;;;;;;;24.10;8.27;;;;;;;;;;6270184;28;20087;-65
2023/12/29 15:11:36;;;;;;;18.40;7.50;;;;;;;;;;6267724;28;21358;-66
2023/12/29 15:14:36;;;;;;;12.47;5.97;;;;;;;;;;6269681;28;20079;-65
2023/12/29 15:17:37;;;;;;;16.55;6.78;;;;;;;;;;6270498;28;20049;-68
2023/12/29 15:20:38;;;;;;;14.48;6.72;;;;;;;;;;6267324;28;20060;-64
2023/12/29 15:23:39;;;;;;;17.67;7.15;;;;;;;;;;6273674;28;20053;-63
2023/12/29 15:26:39;;;;;;;15.48;6.93;;;;;;;;;;6273547;28;20044;-67
2023/12/29 15:29:40;;;;;;;18.40;6.47;;;;;;;;;;6273659;28;20123;-67
2023/12/29 15:32:41;;;;;;;18.83;7.40;;;;;;;;;;6282083;28;20484;-68
2023/12/29 15:35:41;;;;;;;12.77;6.40;;;;;;;;;;6270763;28;20148;-66
2023/12/29 15:38:42;;;;;;;14.43;6.57;;;;;;;;;;6272451;28;20891;-65
2023/12/29 15:41:43;;;;;;;19.38;8.18;;;;;;;;;;6267871;28;20476;-65
2023/12/29 15:44:45;;;;;;;15.25;8.13;;;;;;;;;;6267653;28;20110;-67
2023/12/29 15:47:45;;;;;;;;;;;;;;;;;;6271057;28;20049;-66
2023/12/29 15:50:48;;;;;;;16.15;7.40;;;;;;;;;;6272092;28;21215;-67
2023/12/29 15:53:49;;;;;;;;;;;;;;;;;;6265033;28;20063;-64
2023/12/29 15:56:49;;;;;;;13.00;6.07;;;;;;;;;;6268831;28;19924;-66
2023/12/29 15:59:50;;;;;;;15.90;6.75;;;;;;;;;;6274332;28;20530;-66
2023/12/29 16:02:51;;;;;;;14.50;7.65;;;;;;;;;;6266132;28;20051;-67
2023/12/29 16:05:51;;;;;;;17.45;7.10;;;;;;;;;;6265694;28;20076;-64
2023/12/29 16:08:56;;;;;;;18.00;8.40;;;;;;;;;;6268316;28;20087;-65
2023/12/29 16:11:57;;;;;;;18.48;8.20;;;;;;;;;;6267149;28;20059;-62
2023/12/29 16:14:57;;;;;;;20.73;11.90;;;;;;;;;;6266757;28;20659;-63
2023/12/29 16:18:00;;;;;;;51.65;17.77;;;;;;;;;;6273060;28;20049;-62
2023/12/29 16:21:00;;;;;;;;;;;;;;;;;;6271119;28;20037;-65
2023/12/29 16:24:03;;;;;;;18.30;9.55;;;;;;;;;;6267260;28;19997;-65
2023/12/29 16:27:04;;;;;;;15.32;7.70;;;;;;;;;;6265723;28;20049;-65
2023/12/29 16:30:05;;;;;;;15.45;7.03;;;;;;;;;;6268801;28;20522;-63
2023/12/29 16:33:06;;;;;;;16.77;8.43;;;;;;;;;;6268115;28;20079;-62
2023/12/29 16:36:07;;;;;;;22.58;11.10;;;;;;;;;;6273512;28;20052;-62
2023/12/29 16:39:09;;;;;;;28.07;15.33;;;;;;;;;;6263157;28;20059;-62
2023/12/29 16:42:15;;;;;;;38.53;21.42;;;;;;;;;;6268331;28;20049;-65
2023/12/29 16:45:16;;;;;;;19.90;10.77;;;;;;;;;;6268010;28;20060;-63
2023/12/29 16:48:16;;;;;;;15.90;7.82;;;;;;;;;;6270316;28;20139;-64
2023/12/29 16:51:17;;;;;;;18.98;8.02;;;;;;;;;;6276230;28;20064;-63
2023/12/29 16:54:18;;;;;;;15.77;8.43;;;;;;;;;;6264167;28;20075;-62
2023/12/29 16:57:18;;;;;;;21.75;11.45;;;;;;;;;;6265926;28;20052;-66
2023/12/29 17:00:20;;;;;;;17.70;9.45;;;;;;;;;;6277219;28;20075;-64
2023/12/29 17:03:22;;;;;;;14.98;6.32;;;;;;;;;;6263778;28;20066;-64
2023/12/29 17:06:23;;;;;;;15.43;6.65;;;;;;;;;;6265878;28;20077;-65
2023/12/29 17:09:24;;;;;;;15.25;6.43;;;;;;;;;;6268524;28;20473;-65
2023/12/29 17:12:25;;;;;;;13.15;6.07;;;;;;;;;;6264619;28;20044;-65
2023/12/29 17:15:26;;;;;;;13.70;6.93;;;;;;;;;;6275779;28;20055;-64
2023/12/29 17:18:27;;;;;;;15.68;6.43;;;;;;;;;;6274800;28;20466;-62
2023/12/29 17:21:27;;;;;;;17.27;6.55;;;;;;;;;;6273799;28;20056;-63
2023/12/29 17:24:32;;;;;;;16.92;6.72;;;;;;;;;;6278442;28;20055;-62
2023/12/29 17:27:33;;;;;;;16.85;6.40;;;;;;;;;;6265461;28;20045;-65
2023/12/29 17:30:34;;;;;;;15.43;6.78;;;;;;;;;;6266448;28;20066;-72
2023/12/29 17:33:35;;;;;;;15.38;6.25;;;;;;;;;;6271314;28;20581;-69
2023/12/29 17:36:35;;;;;;;13.45;6.18;;;;;;;;;;6266808;28;20052;-71
2023/12/29 17:39:36;;;;;;;13.55;6.32;;;;;;;;;;6262696;28;20049;-63
2023/12/29 17:42:38;;;;;;;12.55;6.15;;;;;;;;;;6265311;28;20110;-63
2023/12/29 17:45:39;;;;;;;15.23;6.93;;;;;;;;;;6263228;28;20066;-63
2023/12/29 17:48:41;;;;;;;13.13;6.00;;;;;;;;;;6268892;28;20331;-63
2023/12/29 17:51:41;;;;;;;18.80;7.03;;;;;;;;;;6269771;28;20052;-63
2023/12/29 17:54:42;;;;;;;13.13;6.32;;;;;;;;;;6283640;28;20060;-64
2023/12/29 17:57:43;;;;;;;17.10;6.40;;;;;;;;;;6275052;28;20713;-65